createdAt,value
2023-02-04T00:00:29.795Z,81.46
2023-02-04T00:01:29.334Z,80.84
2023-02-04T00:02:29.332Z,80.74
2023-02-04T00:03:29.297Z,81.25
2023-02-04T00:04:29.308Z,80.84
2023-02-04T00:05:29.340Z,81.35
2023-02-04T00:06:29.264Z,81.29
2023-02-04T00:07:29.259Z,81.25
2023-02-04T00:08:29.242Z,81.39
2023-02-04T00:09:29.230Z,81.19
2023-02-04T00:10:29.669Z,81.70
2023-02-04T00:11:29.208Z,82.43
2023-02-04T00:12:29.205Z,82.22
2023-02-04T00:13:29.185Z,82.12
2023-02-04T00:14:29.173Z,82.53
2023-02-04T00:15:29.165Z,82.53
2023-02-04T00:16:29.213Z,82.84
2023-02-04T00:17:29.191Z,82.74
2023-02-04T00:18:29.136Z,82.74
2023-02-04T00:19:29.123Z,82.78
2023-02-04T00:20:29.497Z,83.05
2023-02-04T00:21:29.095Z,82.84
2023-02-04T00:22:29.452Z,82.78
2023-02-04T00:23:29.087Z,82.67
2023-02-04T00:24:29.090Z,82.57
2023-02-04T00:25:29.057Z,82.64
2023-02-04T00:26:29.058Z,82.57
2023-02-04T00:27:29.052Z,82.64
2023-02-04T00:28:29.029Z,82.46
2023-02-04T00:29:29.023Z,82.46
2023-02-04T00:30:29.517Z,82.98
2023-02-04T00:31:29.173Z,82.46
2023-02-04T00:32:29.036Z,82.67
2023-02-04T00:33:28.992Z,82.57
2023-02-04T00:34:28.958Z,82.57
2023-02-04T00:35:28.953Z,82.67
2023-02-04T00:36:28.939Z,82.05
2023-02-04T00:37:28.946Z,81.84
2023-02-04T00:38:28.943Z,81.74
2023-02-04T00:39:28.908Z,81.54
2023-02-04T00:40:29.244Z,81.43
2023-02-04T00:41:28.928Z,81.84
2023-02-04T00:42:28.886Z,81.74
2023-02-04T00:43:28.864Z,81.84
2023-02-04T00:44:28.853Z,82.36
2023-02-04T00:45:28.902Z,82.50
2023-02-04T00:46:28.830Z,82.81
2023-02-04T00:47:28.834Z,82.67
2023-02-04T00:48:28.813Z,82.50
2023-02-04T00:49:28.825Z,82.50
2023-02-04T00:50:29.245Z,82.60
2023-02-04T00:51:28.781Z,82.60
2023-02-04T00:52:28.792Z,82.44
2023-02-04T00:53:28.762Z,82.86
2023-02-04T00:54:28.746Z,82.65
2023-02-04T00:55:28.737Z,82.54
2023-02-04T00:56:28.739Z,82.58
2023-02-04T00:57:28.738Z,82.44
2023-02-04T00:58:28.700Z,82.68
2023-02-04T00:59:28.696Z,82.48
2023-02-04T01:00:29.154Z,83.06
2023-02-04T01:01:28.702Z,82.95
2023-02-04T01:02:28.759Z,82.65
2023-02-04T01:03:28.652Z,83.20
2023-02-04T01:04:28.642Z,82.68
2023-02-04T01:05:28.663Z,82.58
2023-02-04T01:06:28.623Z,81.96
2023-02-04T01:07:28.632Z,81.75
2023-02-04T01:08:28.598Z,82.06
2023-02-04T01:09:28.637Z,81.85
2023-02-04T01:10:28.970Z,82.27
2023-02-04T01:11:28.616Z,82.17
2023-02-04T01:12:28.573Z,82.27
2023-02-04T01:13:28.546Z,82.48
2023-02-04T01:14:28.535Z,82.58
2023-02-04T01:15:28.529Z,82.27
2023-02-04T01:16:28.530Z,81.85
2023-02-04T01:17:28.525Z,81.54
2023-02-04T01:18:28.498Z,81.54
2023-02-04T01:19:28.489Z,81.34
2023-02-04T01:20:28.653Z,81.44
2023-02-04T01:21:28.496Z,81.44
2023-02-04T01:22:28.464Z,81.58
2023-02-04T01:23:28.448Z,81.48
2023-02-04T01:24:28.434Z,81.44
2023-02-04T01:25:28.452Z,81.58
2023-02-04T01:26:28.416Z,81.34
2023-02-04T01:27:28.411Z,81.37
2023-02-04T01:28:28.391Z,81.27
2023-02-04T01:29:28.384Z,81.37
2023-02-04T01:30:28.521Z,81.54
2023-02-04T01:31:28.447Z,81.48
2023-02-04T01:32:28.357Z,81.34
2023-02-04T01:33:28.345Z,81.23
2023-02-04T01:34:28.326Z,81.23
2023-02-04T01:35:28.326Z,81.58
2023-02-04T01:36:28.311Z,81.16
2023-02-04T01:37:28.341Z,81.37
2023-02-04T01:38:28.284Z,81.48
2023-02-04T01:39:28.275Z,81.37
2023-02-04T01:40:28.457Z,81.58
2023-02-04T01:41:28.265Z,81.68
2023-02-04T01:42:28.252Z,81.58
2023-02-04T01:43:28.232Z,80.85
2023-02-04T01:44:28.226Z,81.48
2023-02-04T01:45:28.216Z,81.06
2023-02-04T01:46:28.212Z,81.48
2023-02-04T01:47:28.211Z,81.48
2023-02-04T01:48:28.179Z,81.16
2023-02-04T01:49:28.168Z,81.48
2023-02-04T01:50:28.393Z,81.48
2023-02-04T01:51:28.152Z,81.48
2023-02-04T01:52:28.155Z,81.48
2023-02-04T01:53:28.150Z,81.51
2023-02-04T01:54:28.115Z,81.48
2023-02-04T01:55:28.114Z,81.58
2023-02-04T01:56:28.137Z,81.58
2023-02-04T01:57:28.095Z,81.89
2023-02-04T01:58:28.073Z,81.58
2023-02-04T01:59:28.066Z,81.48
2023-02-04T02:00:28.367Z,81.48
2023-02-04T02:01:28.125Z,81.37
2023-02-04T02:02:28.126Z,81.48
2023-02-04T02:03:28.024Z,81.30
2023-02-04T02:04:28.009Z,81.62
2023-02-04T02:05:27.997Z,81.68
2023-02-04T02:06:27.992Z,81.41
2023-02-04T02:07:27.990Z,81.62
2023-02-04T02:08:27.974Z,81.72
2023-02-04T02:09:27.985Z,81.37
2023-02-04T02:10:28.141Z,81.30
2023-02-04T02:11:27.938Z,81.62
2023-02-04T02:12:27.943Z,81.58
2023-02-04T02:13:27.916Z,81.48
2023-02-04T02:14:27.906Z,81.30
2023-02-04T02:15:27.898Z,81.82
2023-02-04T02:16:27.922Z,81.62
2023-02-04T02:17:27.926Z,81.62
2023-02-04T02:18:27.861Z,81.82
2023-02-04T02:19:27.881Z,80.89
2023-02-04T02:20:27.845Z,81.06
2023-02-04T02:21:27.829Z,80.85
2023-02-04T02:22:27.847Z,80.75
2023-02-04T02:23:27.808Z,80.65
2023-02-04T02:24:27.796Z,80.33
2023-02-04T02:25:27.805Z,80.44
2023-02-04T02:26:27.794Z,80.33
2023-02-04T02:27:27.802Z,80.02
2023-02-04T02:28:27.754Z,80.02
2023-02-04T02:29:27.747Z,79.92
2023-02-04T02:30:27.768Z,79.51
2023-02-04T02:31:27.801Z,79.82
2023-02-04T02:32:27.712Z,79.71
2023-02-04T02:33:27.716Z,79.82
2023-02-04T02:34:27.697Z,79.71
2023-02-04T02:35:27.684Z,79.82
2023-02-04T02:36:27.676Z,79.71
2023-02-04T02:37:27.661Z,79.27
2023-02-04T02:38:27.686Z,79.51
2023-02-04T02:39:27.650Z,79.41
2023-02-04T02:40:27.628Z,78.99
2023-02-04T02:41:27.649Z,79.92
2023-02-04T02:42:27.613Z,79.71
2023-02-04T02:43:27.612Z,79.71
2023-02-04T02:44:27.597Z,79.51
2023-02-04T02:45:27.589Z,79.51
2023-02-04T02:46:27.686Z,79.51
2023-02-04T02:47:27.551Z,79.41
2023-02-04T02:48:27.554Z,79.51
2023-02-04T02:49:27.529Z,79.51
2023-02-04T02:50:27.536Z,79.51
2023-02-04T02:51:27.521Z,79.51
2023-02-04T02:52:27.500Z,79.92
2023-02-04T02:53:27.494Z,79.96
2023-02-04T02:54:27.475Z,79.55
2023-02-04T02:55:27.464Z,80.13
2023-02-04T02:56:27.462Z,79.96
2023-02-04T02:57:27.466Z,80.47
2023-02-04T02:58:27.455Z,80.16
2023-02-04T02:59:27.444Z,80.06
2023-02-04T03:00:27.433Z,80.44
2023-02-04T03:01:27.495Z,80.37
2023-02-04T03:02:27.464Z,80.37
2023-02-04T03:03:27.441Z,80.33
2023-02-04T03:04:27.366Z,80.27
2023-02-04T03:05:27.366Z,80.23
2023-02-04T03:06:27.369Z,80.16
2023-02-04T03:07:27.345Z,80.37
2023-02-04T03:08:27.355Z,80.65
2023-02-04T03:09:27.314Z,80.37
2023-02-04T03:10:27.308Z,80.37
2023-02-04T03:11:27.293Z,81.51
2023-02-04T03:12:27.283Z,80.37
2023-02-04T03:13:27.340Z,80.16
2023-02-04T03:14:27.261Z,80.37
2023-02-04T03:15:27.453Z,80.37
2023-02-04T03:16:27.270Z,80.47
2023-02-04T03:17:27.226Z,80.16
2023-02-04T03:18:27.232Z,80.58
2023-02-04T03:19:27.208Z,80.37
2023-02-04T03:20:27.231Z,80.58
2023-02-04T03:21:27.187Z,80.47
2023-02-04T03:22:27.179Z,80.58
2023-02-04T03:23:27.186Z,80.37
2023-02-04T03:24:27.157Z,81.62
2023-02-04T03:25:27.248Z,80.27
2023-02-04T03:26:27.140Z,80.68
2023-02-04T03:27:27.131Z,80.47
2023-02-04T03:28:27.140Z,80.37
2023-02-04T03:29:29.454Z,80.41
2023-02-04T03:30:27.099Z,80.47
2023-02-04T03:31:27.286Z,80.73
2023-02-04T03:32:27.090Z,80.47
2023-02-04T03:33:27.082Z,80.41
2023-02-04T03:34:27.085Z,80.16
2023-02-04T03:35:27.052Z,80.21
2023-02-04T03:36:27.039Z,80.31
2023-02-04T03:37:27.020Z,80.62
2023-02-04T03:38:27.033Z,80.52
2023-02-04T03:39:27.001Z,80.41
2023-02-04T03:40:26.990Z,80.41
2023-02-04T03:41:26.979Z,80.41
2023-02-04T03:42:26.969Z,80.41
2023-02-04T03:43:27.033Z,80.83
2023-02-04T03:44:26.974Z,80.79
2023-02-04T03:45:28.522Z,80.62
2023-02-04T03:46:27.967Z,80.73
2023-02-04T03:47:26.935Z,80.73
2023-02-04T03:48:26.915Z,80.68
2023-02-04T03:49:26.895Z,80.79
2023-02-04T03:50:26.889Z,80.83
2023-02-04T03:51:26.872Z,80.83
2023-02-04T03:52:26.864Z,80.93
2023-02-04T03:53:27.093Z,80.62
2023-02-04T03:54:26.841Z,80.62
2023-02-04T03:55:26.831Z,80.93
2023-02-04T03:56:26.832Z,81.14
2023-02-04T03:57:26.808Z,80.73
2023-02-04T03:58:26.961Z,80.93
2023-02-04T03:59:26.800Z,81.76
2023-02-04T04:00:26.780Z,81.45
2023-02-04T04:01:26.827Z,81.56
2023-02-04T04:02:26.830Z,81.76
2023-02-04T04:03:26.760Z,81.56
2023-02-04T04:04:26.744Z,81.66
2023-02-04T04:05:26.732Z,81.56
2023-02-04T04:06:26.719Z,81.66
2023-02-04T04:07:26.723Z,81.66
2023-02-04T04:08:26.710Z,81.14
2023-02-04T04:09:26.684Z,81.56
2023-02-04T04:10:26.681Z,81.66
2023-02-04T04:11:26.662Z,81.56
2023-02-04T04:12:26.690Z,81.45
2023-02-04T04:13:26.654Z,81.35
2023-02-04T04:14:26.634Z,81.45
2023-02-04T04:15:26.621Z,81.35
2023-02-04T04:16:26.616Z,81.35
2023-02-04T04:17:26.616Z,81.35
2023-02-04T04:18:26.598Z,81.45
2023-02-04T04:19:26.581Z,81.35
2023-02-04T04:20:26.576Z,81.45
2023-02-04T04:21:26.555Z,81.66
2023-02-04T04:22:26.549Z,81.56
2023-02-04T04:23:26.550Z,81.66
2023-02-04T04:24:26.525Z,81.76
2023-02-04T04:25:26.513Z,81.76
2023-02-04T04:26:26.506Z,81.72
2023-02-04T04:27:26.494Z,81.51
2023-02-04T04:28:26.490Z,81.72
2023-02-04T04:29:26.473Z,81.51
2023-02-04T04:30:26.460Z,81.62
2023-02-04T04:31:26.586Z,81.62
2023-02-04T04:32:26.435Z,81.20
2023-02-04T04:33:26.476Z,81.20
2023-02-04T04:34:26.429Z,81.51
2023-02-04T04:35:26.442Z,81.30
2023-02-04T04:36:26.432Z,81.51
2023-02-04T04:37:26.390Z,81.27
2023-02-04T04:38:26.383Z,81.62
2023-02-04T04:39:26.360Z,81.41
2023-02-04T04:40:26.352Z,81.51
2023-02-04T04:41:26.365Z,81.30
2023-02-04T04:42:26.328Z,81.62
2023-02-04T04:43:26.437Z,81.30
2023-02-04T04:44:26.309Z,81.30
2023-02-04T04:45:26.296Z,81.48
2023-02-04T04:46:26.317Z,81.48
2023-02-04T04:47:26.280Z,81.30
2023-02-04T04:48:26.281Z,81.51
2023-02-04T04:49:26.271Z,81.41
2023-02-04T04:50:26.241Z,81.41
2023-02-04T04:51:26.228Z,81.51
2023-02-04T04:52:26.222Z,81.30
2023-02-04T04:53:26.215Z,81.41
2023-02-04T04:54:26.198Z,81.51
2023-02-04T04:55:26.185Z,81.62
2023-02-04T04:56:26.178Z,81.41
2023-02-04T04:57:26.165Z,81.41
2023-02-04T04:58:26.173Z,81.51
2023-02-04T04:59:26.146Z,81.62
2023-02-04T05:00:26.134Z,81.62
2023-02-04T05:01:26.127Z,81.56
2023-02-04T05:02:26.118Z,81.35
2023-02-04T05:03:26.121Z,81.66
2023-02-04T05:04:26.158Z,81.87
2023-02-04T05:05:26.104Z,82.18
2023-02-04T05:06:26.076Z,82.14
2023-02-04T05:07:26.064Z,82.03
2023-02-04T05:08:26.086Z,82.18
2023-02-04T05:09:26.052Z,82.24
2023-02-04T05:10:26.037Z,81.93
2023-02-04T05:11:26.026Z,82.03
2023-02-04T05:12:26.012Z,82.18
2023-02-04T05:13:26.019Z,82.28
2023-02-04T05:14:25.998Z,82.07
2023-02-04T05:15:25.981Z,81.76
2023-02-04T05:16:26.037Z,81.93
2023-02-04T05:17:27.886Z,81.97
2023-02-04T05:18:25.958Z,81.76
2023-02-04T05:19:25.937Z,82.18
2023-02-04T05:20:25.931Z,81.87
2023-02-04T05:21:25.932Z,81.87
2023-02-04T05:22:25.910Z,82.07
2023-02-04T05:23:25.921Z,81.76
2023-02-04T05:24:25.901Z,82.07
2023-02-04T05:25:25.877Z,81.97
2023-02-04T05:26:30.781Z,81.97
2023-02-04T05:27:26.854Z,82.73
2023-02-04T05:28:25.868Z,82.59
2023-02-04T05:29:25.834Z,82.49
2023-02-04T05:30:26.088Z,82.59
2023-02-04T05:31:25.836Z,82.63
2023-02-04T05:32:25.802Z,82.42
2023-02-04T05:33:25.829Z,82.53
2023-02-04T05:34:25.793Z,83.15
2023-02-04T05:35:25.774Z,83.25
2023-02-04T05:36:25.766Z,83.04
2023-02-04T05:37:25.783Z,82.84
2023-02-04T05:38:25.762Z,82.94
2023-02-04T05:39:25.733Z,82.84
2023-02-04T05:40:25.719Z,83.15
2023-02-04T05:41:25.713Z,82.98
2023-02-04T05:42:25.696Z,83.39
2023-02-04T05:43:25.687Z,83.15
2023-02-04T05:44:27.436Z,83.39
2023-02-04T05:45:25.690Z,83.70
2023-02-04T05:46:25.653Z,83.70
2023-02-04T05:47:25.638Z,83.70
2023-02-04T05:48:25.645Z,83.46
2023-02-04T05:49:25.628Z,83.70
2023-02-04T05:50:25.610Z,83.60
2023-02-04T05:51:25.616Z,83.56
2023-02-04T05:52:25.589Z,83.60
2023-02-04T05:53:26.280Z,83.46
2023-02-04T05:54:25.584Z,83.60
2023-02-04T05:55:25.555Z,83.50
2023-02-04T05:56:25.556Z,83.18
2023-02-04T05:57:25.534Z,83.70
2023-02-04T05:58:25.525Z,83.81
2023-02-04T05:59:25.532Z,83.81
2023-02-04T06:00:25.499Z,83.91
2023-02-04T06:01:25.491Z,83.91
2023-02-04T06:02:25.480Z,83.91
2023-02-04T06:03:25.537Z,83.70
2023-02-04T06:04:25.573Z,83.81
2023-02-04T06:05:25.448Z,83.60
2023-02-04T06:06:25.442Z,83.81
2023-02-04T06:07:25.424Z,84.22
2023-02-04T06:08:25.420Z,83.39
2023-02-04T06:09:25.506Z,83.39
2023-02-04T06:10:25.404Z,83.70
2023-02-04T06:11:25.381Z,83.60
2023-02-04T06:12:25.378Z,83.91
2023-02-04T06:13:25.368Z,83.70
2023-02-04T06:14:25.376Z,84.27
2023-02-04T06:15:25.344Z,83.95
2023-02-04T06:16:25.377Z,83.95
2023-02-04T06:17:25.320Z,84.16
2023-02-04T06:18:25.311Z,84.37
2023-02-04T06:19:25.312Z,84.33
2023-02-04T06:20:25.289Z,84.16
2023-02-04T06:21:25.284Z,84.58
2023-02-04T06:22:25.268Z,84.78
2023-02-04T06:23:25.256Z,84.37
2023-02-04T06:24:25.261Z,84.27
2023-02-04T06:25:25.265Z,84.27
2023-02-04T06:26:25.223Z,84.89
2023-02-04T06:27:25.231Z,84.99
2023-02-04T06:28:25.202Z,84.89
2023-02-04T06:29:25.202Z,84.89
2023-02-04T06:30:25.183Z,84.72
2023-02-04T06:31:25.312Z,84.41
2023-02-04T06:32:25.169Z,84.51
2023-02-04T06:33:25.148Z,84.92
2023-02-04T06:34:25.154Z,84.78
2023-02-04T06:35:25.142Z,85.30
2023-02-04T06:36:25.114Z,85.20
2023-02-04T06:37:25.107Z,85.34
2023-02-04T06:38:25.095Z,84.92
2023-02-04T06:39:25.109Z,84.89
2023-02-04T06:40:25.075Z,85.30
2023-02-04T06:41:25.081Z,84.89
2023-02-04T06:42:25.052Z,84.89
2023-02-04T06:43:25.043Z,84.82
2023-02-04T06:44:25.043Z,84.99
2023-02-04T06:45:25.030Z,84.82
2023-02-04T06:46:25.082Z,85.20
2023-02-04T06:47:25.003Z,85.20
2023-02-04T06:48:24.988Z,85.30
2023-02-04T06:49:24.998Z,85.20
2023-02-04T06:50:24.968Z,85.30
2023-02-04T06:51:24.964Z,84.89
2023-02-04T06:52:24.974Z,84.78
2023-02-04T06:53:24.937Z,84.89
2023-02-04T06:54:24.946Z,84.99
2023-02-04T06:55:24.915Z,84.53
2023-02-04T06:56:24.912Z,84.39
2023-02-04T06:57:24.909Z,84.70
2023-02-04T06:58:24.898Z,84.25
2023-02-04T06:59:24.911Z,83.69
2023-02-04T07:00:24.863Z,83.07
2023-02-04T07:01:24.973Z,82.10
2023-02-04T07:02:24.939Z,81.68
2023-02-04T07:03:24.841Z,81.34
2023-02-04T07:04:24.833Z,80.57
2023-02-04T07:05:24.811Z,79.85
2023-02-04T07:06:24.800Z,79.91
2023-02-04T07:07:24.788Z,79.40
2023-02-04T07:08:24.778Z,78.95
2023-02-04T07:09:24.778Z,78.43
2023-02-04T07:10:24.759Z,78.43
2023-02-04T07:11:24.745Z,77.87
2023-02-04T07:12:24.740Z,76.81
2023-02-04T07:13:24.750Z,76.39
2023-02-04T07:14:24.727Z,76.29
2023-02-04T07:15:24.704Z,75.98
2023-02-04T07:16:24.697Z,75.95
2023-02-04T07:17:24.682Z,75.60
2023-02-04T07:18:24.685Z,75.29
2023-02-04T07:19:24.668Z,74.43
2023-02-04T07:20:24.656Z,73.98
2023-02-04T07:21:24.641Z,72.81
2023-02-04T07:22:24.627Z,72.40
2023-02-04T07:23:24.617Z,72.37
2023-02-04T07:24:24.629Z,71.41
2023-02-04T07:25:24.596Z,70.96
2023-02-04T07:26:24.586Z,70.86
2023-02-04T07:27:24.574Z,69.79
2023-02-04T07:28:24.564Z,69.70
2023-02-04T07:29:25.849Z,68.84
2023-02-04T07:30:24.543Z,68.40
2023-02-04T07:31:24.668Z,67.75
2023-02-04T07:32:24.519Z,67.13
2023-02-04T07:33:24.512Z,66.72
2023-02-04T07:34:24.505Z,66.58
2023-02-04T07:35:24.490Z,65.83
2023-02-04T07:36:24.579Z,65.73
2023-02-04T07:37:24.463Z,65.42
2023-02-04T07:38:24.456Z,65.22
2023-02-04T07:39:24.449Z,65.22
2023-02-04T07:40:24.426Z,65.39
2023-02-04T07:41:24.420Z,64.67
2023-02-04T07:42:24.409Z,64.37
2023-02-04T07:43:24.397Z,64.67
2023-02-04T07:44:24.393Z,64.37
2023-02-04T07:45:24.386Z,64.78
2023-02-04T07:46:24.405Z,63.82
2023-02-04T07:47:24.361Z,63.49
2023-02-04T07:48:24.336Z,62.43
2023-02-04T07:49:24.344Z,62.30
2023-02-04T07:50:24.313Z,61.25
2023-02-04T07:51:24.304Z,61.25
2023-02-04T07:52:24.291Z,61.15
2023-02-04T07:53:24.281Z,60.42
2023-02-04T07:54:24.287Z,60.50
2023-02-04T07:55:24.268Z,60.58
2023-02-04T07:56:24.255Z,59.63
2023-02-04T07:57:32.073Z,59.83
2023-02-04T07:58:24.250Z,58.75
2023-02-04T07:59:24.238Z,58.14
2023-02-04T08:00:24.206Z,57.40
2023-02-04T08:01:24.272Z,57.20
2023-02-04T08:02:24.204Z,56.99
2023-02-04T08:03:24.183Z,57.48
2023-02-04T08:04:24.174Z,56.84
2023-02-04T08:05:24.172Z,56.63
2023-02-04T08:06:24.142Z,56.45
2023-02-04T08:07:24.132Z,56.53
2023-02-04T08:08:24.118Z,56.84
2023-02-04T08:09:24.150Z,55.89
2023-02-04T08:10:24.094Z,55.79
2023-02-04T08:11:24.087Z,55.48
2023-02-04T08:12:24.076Z,55.46
2023-02-04T08:13:24.063Z,54.64
2023-02-04T08:14:24.061Z,54.41
2023-02-04T08:15:24.051Z,54.59
2023-02-04T08:16:24.151Z,53.67
2023-02-04T08:17:24.042Z,53.55
2023-02-04T08:18:24.006Z,53.85
2023-02-04T08:19:24.008Z,53.75
2023-02-04T08:20:23.983Z,53.34
2023-02-04T08:21:23.977Z,53.75
2023-02-04T08:22:23.960Z,53.37
2023-02-04T08:23:23.953Z,54.11
2023-02-04T08:24:23.957Z,53.98
2023-02-04T08:25:23.930Z,53.37
2023-02-04T08:26:23.918Z,53.47
2023-02-04T08:27:23.910Z,53.98
2023-02-04T08:28:23.897Z,53.24
2023-02-04T08:29:23.903Z,53.22
2023-02-04T08:30:23.879Z,53.02
2023-02-04T08:31:24.025Z,52.81
2023-02-04T08:32:23.852Z,52.02
2023-02-04T08:33:23.861Z,52.53
2023-02-04T08:34:23.853Z,52.37
2023-02-04T08:35:23.821Z,53.59
2023-02-04T08:36:23.806Z,54.05
2023-02-04T08:37:23.797Z,54.57
2023-02-04T08:38:23.787Z,54.36
2023-02-04T08:39:23.794Z,54.87
2023-02-04T08:40:23.766Z,54.46
2023-02-04T08:41:23.761Z,54.33
2023-02-04T08:42:23.745Z,54.44
2023-02-04T08:43:23.730Z,54.46
2023-02-04T08:44:23.738Z,54.57
2023-02-04T08:45:23.721Z,55.23
2023-02-04T08:46:23.729Z,56.71
2023-02-04T08:47:23.697Z,58.27
2023-02-04T08:48:23.692Z,58.81
2023-02-04T08:49:23.713Z,58.81
2023-02-04T08:50:23.672Z,58.81
2023-02-04T08:51:23.670Z,58.86
2023-02-04T08:52:23.659Z,57.22
2023-02-04T08:53:23.645Z,57.63
2023-02-04T08:54:23.646Z,57.43
2023-02-04T08:55:23.663Z,57.12
2023-02-04T08:56:23.616Z,56.71
2023-02-04T08:57:23.606Z,56.92
2023-02-04T08:58:23.597Z,56.71
2023-02-04T08:59:23.602Z,57.25
2023-02-04T09:00:23.577Z,58.40
2023-02-04T09:01:23.966Z,58.29
2023-02-04T09:02:23.644Z,57.76
2023-02-04T09:03:23.549Z,57.76
2023-02-04T09:04:23.548Z,58.20
2023-02-04T09:05:23.551Z,58.29
2023-02-04T09:06:23.513Z,58.94
2023-02-04T09:07:23.502Z,59.04
2023-02-04T09:08:23.489Z,57.38
2023-02-04T09:09:25.392Z,57.79
2023-02-04T09:10:23.543Z,57.38
2023-02-04T09:11:23.461Z,58.09
2023-02-04T09:12:23.447Z,57.17
2023-02-04T09:13:23.460Z,57.22
2023-02-04T09:14:23.448Z,57.35
2023-02-04T09:15:23.420Z,57.07
2023-02-04T09:16:23.425Z,57.45
2023-02-04T09:17:23.398Z,56.92
2023-02-04T09:18:23.395Z,56.71
2023-02-04T09:19:23.371Z,56.27
2023-02-04T09:20:23.497Z,56.30
2023-02-04T09:21:23.370Z,56.89
2023-02-04T09:22:23.345Z,55.87
2023-02-04T09:23:23.329Z,56.40
2023-02-04T09:24:23.317Z,56.51
2023-02-04T09:25:23.325Z,55.63
2023-02-04T09:26:23.297Z,54.72
2023-02-04T09:27:23.286Z,55.13
2023-02-04T09:28:23.276Z,54.36
2023-02-04T09:29:23.265Z,53.98
2023-02-04T09:30:23.707Z,54.59
2023-02-04T09:31:23.342Z,54.49
2023-02-04T09:32:23.230Z,54.18
2023-02-04T09:33:23.221Z,53.96
2023-02-04T09:34:23.210Z,53.44
2023-02-04T09:35:23.230Z,53.52
2023-02-04T09:36:23.197Z,53.59
2023-02-04T09:37:23.199Z,52.48
2023-02-04T09:38:23.163Z,53.19
2023-02-04T09:39:23.208Z,52.66
2023-02-04T09:40:23.360Z,52.25
2023-02-04T09:41:23.134Z,52.35
2023-02-04T09:42:23.121Z,50.92
2023-02-04T09:43:23.113Z,51.10
2023-02-04T09:44:23.098Z,50.87
2023-02-04T09:45:23.103Z,50.37
2023-02-04T09:46:23.082Z,49.94
2023-02-04T09:47:23.089Z,49.94
2023-02-04T09:48:23.061Z,49.84
2023-02-04T09:49:23.048Z,49.60
2023-02-04T09:50:23.047Z,51.03
2023-02-04T09:51:23.032Z,50.52
2023-02-04T09:52:23.015Z,50.59
2023-02-04T09:53:23.023Z,50.87
2023-02-04T09:54:22.999Z,50.59
2023-02-04T09:55:22.986Z,51.94
2023-02-04T09:56:22.962Z,50.92
2023-02-04T09:57:22.951Z,52.37
2023-02-04T09:58:22.964Z,51.84
2023-02-04T09:59:22.961Z,50.57
2023-02-04T10:00:22.931Z,50.75
2023-02-04T10:01:22.970Z,50.20
2023-02-04T10:02:22.888Z,49.95
2023-02-04T10:03:22.889Z,48.30
2023-02-04T10:04:22.869Z,47.89
2023-02-04T10:05:22.867Z,47.89
2023-02-04T10:06:22.844Z,46.37
2023-02-04T10:07:22.837Z,46.37
2023-02-04T10:08:22.835Z,46.57
2023-02-04T10:09:22.830Z,46.59
2023-02-04T10:10:22.810Z,46.06
2023-02-04T10:11:22.796Z,47.02
2023-02-04T10:12:22.779Z,47.75
2023-02-04T10:13:22.791Z,47.78
2023-02-04T10:14:22.759Z,47.66
2023-02-04T10:15:22.773Z,47.66
2023-02-04T10:16:22.800Z,46.21
2023-02-04T10:17:22.728Z,47.20
2023-02-04T10:18:22.716Z,46.37
2023-02-04T10:19:22.706Z,46.27
2023-02-04T10:20:22.702Z,45.98
2023-02-04T10:21:22.685Z,47.78
2023-02-04T10:22:22.669Z,48.00
2023-02-04T10:23:22.660Z,48.35
2023-02-04T10:24:22.655Z,48.48
2023-02-04T10:25:22.680Z,49.75
2023-02-04T10:26:22.628Z,50.87
2023-02-04T10:27:22.625Z,50.05
2023-02-04T10:28:22.622Z,50.26
2023-02-04T10:29:22.605Z,49.52
2023-02-04T10:30:22.692Z,49.40
2023-02-04T10:31:22.673Z,49.27
2023-02-04T10:32:22.568Z,48.74
2023-02-04T10:33:22.558Z,48.00
2023-02-04T10:34:22.553Z,47.06
2023-02-04T10:35:22.554Z,46.82
2023-02-04T10:36:22.533Z,46.31
2023-02-04T10:37:22.559Z,46.11
2023-02-04T10:38:22.508Z,46.45
2023-02-04T10:39:22.556Z,46.48
2023-02-04T10:40:22.615Z,48.76
2023-02-04T10:41:22.495Z,48.60
2023-02-04T10:42:22.471Z,50.15
2023-02-04T10:43:22.455Z,49.73
2023-02-04T10:44:22.445Z,49.65
2023-02-04T10:45:22.585Z,51.43
2023-02-04T10:46:22.491Z,52.58
2023-02-04T10:47:22.412Z,51.48
2023-02-04T10:48:22.406Z,50.93
2023-02-04T10:49:22.401Z,51.88
2023-02-04T10:50:22.613Z,52.47
2023-02-04T10:51:22.372Z,54.13
2023-02-04T10:52:22.365Z,54.77
2023-02-04T10:53:22.369Z,56.30
2023-02-04T10:54:22.341Z,56.34
2023-02-04T10:55:22.345Z,56.64
2023-02-04T10:56:22.320Z,56.34
2023-02-04T10:57:22.328Z,56.56
2023-02-04T10:58:22.312Z,57.18
2023-02-04T10:59:22.290Z,56.28
2023-02-04T11:00:22.335Z,56.31
2023-02-04T11:01:22.302Z,57.03
2023-02-04T11:02:22.252Z,57.23
2023-02-04T11:03:22.297Z,57.16
2023-02-04T11:04:22.235Z,57.06
2023-02-04T11:05:22.233Z,57.08
2023-02-04T11:06:22.219Z,56.98
2023-02-04T11:07:22.202Z,57.29
2023-02-04T11:08:22.197Z,57.70
2023-02-04T11:09:22.176Z,58.03
2023-02-04T11:10:22.205Z,58.34
2023-02-04T11:11:22.156Z,58.34
2023-02-04T11:12:22.147Z,57.31
2023-02-04T11:13:22.165Z,57.34
2023-02-04T11:14:22.123Z,57.10
2023-02-04T11:15:22.127Z,57.03
2023-02-04T11:16:22.122Z,56.93
2023-02-04T11:17:22.093Z,57.52
2023-02-04T11:18:22.121Z,57.14
2023-02-04T11:19:22.073Z,56.21
2023-02-04T11:20:22.110Z,56.52
2023-02-04T11:21:22.050Z,57.37
2023-02-04T11:22:22.037Z,57.68
2023-02-04T11:23:22.060Z,57.78
2023-02-04T11:24:22.038Z,58.19
2023-02-04T11:25:22.015Z,58.60
2023-02-04T11:26:21.992Z,58.81
2023-02-04T11:27:21.983Z,59.01
2023-02-04T11:28:21.972Z,58.70
2023-02-04T11:29:21.983Z,58.70
2023-02-04T11:30:21.999Z,58.60
2023-02-04T11:31:22.052Z,58.60
2023-02-04T11:32:21.930Z,58.53
2023-02-04T11:33:21.917Z,58.84
2023-02-04T11:34:21.906Z,59.04
2023-02-04T11:35:21.909Z,59.25
2023-02-04T11:36:21.887Z,59.25
2023-02-04T11:37:21.888Z,59.14
2023-02-04T11:38:21.862Z,59.35
2023-02-04T11:39:21.867Z,59.79
2023-02-04T11:40:21.856Z,60.21
2023-02-04T11:41:21.829Z,60.07
2023-02-04T11:42:21.828Z,60.28
2023-02-04T11:43:22.076Z,60.21
2023-02-04T11:44:21.794Z,60.07
2023-02-04T11:45:21.824Z,60.00
2023-02-04T11:46:21.838Z,60.10
2023-02-04T11:47:21.768Z,59.89
2023-02-04T11:48:21.757Z,59.86
2023-02-04T11:49:21.739Z,60.07
2023-02-04T11:50:21.744Z,59.86
2023-02-04T11:51:21.721Z,59.86
2023-02-04T11:52:21.715Z,60.07
2023-02-04T11:53:21.735Z,60.25
2023-02-04T11:54:21.687Z,60.17
2023-02-04T11:55:21.694Z,60.07
2023-02-04T11:56:21.664Z,59.94
2023-02-04T11:57:21.658Z,59.94
2023-02-04T11:58:21.645Z,59.74
2023-02-04T11:59:21.630Z,59.74
2023-02-04T12:00:21.668Z,59.63
2023-02-04T12:01:21.631Z,59.63
2023-02-04T12:02:21.637Z,59.12
2023-02-04T12:03:21.658Z,58.73
2023-02-04T12:04:21.588Z,57.70
2023-02-04T12:05:21.584Z,57.81
2023-02-04T12:06:21.613Z,57.39
2023-02-04T12:07:21.550Z,57.50
2023-02-04T12:08:21.541Z,57.70
2023-02-04T12:09:21.530Z,57.29
2023-02-04T12:10:21.532Z,57.09
2023-02-04T12:11:21.506Z,57.29
2023-02-04T12:12:21.503Z,57.70
2023-02-04T12:13:21.504Z,56.98
2023-02-04T12:14:21.477Z,57.73
2023-02-04T12:15:21.480Z,57.93
2023-02-04T12:16:21.507Z,57.83
2023-02-04T12:17:21.475Z,57.42
2023-02-04T12:18:21.435Z,57.73
2023-02-04T12:19:21.422Z,57.42
2023-02-04T12:20:21.428Z,58.35
2023-02-04T12:21:21.425Z,58.97
2023-02-04T12:22:21.396Z,58.63
2023-02-04T12:23:21.379Z,58.73
2023-02-04T12:24:21.377Z,58.42
2023-02-04T12:25:21.370Z,58.94
2023-02-04T12:26:21.350Z,58.73
2023-02-04T12:27:21.335Z,58.09
2023-02-04T12:28:21.394Z,57.47
2023-02-04T12:29:21.315Z,57.78
2023-02-04T12:30:21.322Z,57.78
2023-02-04T12:31:21.365Z,57.68
2023-02-04T12:32:21.286Z,57.37
2023-02-04T12:33:21.295Z,57.68
2023-02-04T12:34:21.264Z,57.29
2023-02-04T12:35:21.301Z,57.39
2023-02-04T12:36:21.239Z,57.81
2023-02-04T12:37:21.226Z,57.18
2023-02-04T12:38:21.228Z,57.50
2023-02-04T12:39:21.207Z,56.46
2023-02-04T12:40:21.206Z,56.36
2023-02-04T12:41:21.181Z,56.26
2023-02-04T12:42:21.189Z,55.93
2023-02-04T12:43:21.176Z,56.16
2023-02-04T12:44:21.154Z,55.21
2023-02-04T12:45:21.154Z,55.10
2023-02-04T12:46:21.163Z,54.48
2023-02-04T12:47:21.116Z,55.51
2023-02-04T12:48:21.140Z,55.51
2023-02-04T12:49:21.111Z,55.30
2023-02-04T12:50:21.095Z,54.82
2023-02-04T12:51:21.074Z,54.82
2023-02-04T12:52:21.066Z,54.58